Terminal Aerodrome Forecast
Issued by NWS Louisville, KY

Home | Current Version | Previous Version | Text Only | Print | Product List | Glossary On
Versions: 1 2 3 4 5 6 7 8 9 10 11 12 13 14 15 16 17 18 19 20 21
000
FTUS43 KLMK 171300 AAA
TAFSDF
TAF AMD
KSDF 171348Z 1714/1818 19011G16KT P6SM SCT250
     FM171600 20011KT P6SM SCT250
     FM180000 VRB04KT P6SM FEW060 BKN200=

USA.gov is the U.S. government's official web portal to all federal, state and local government web resources and services.